sensor_id;sensor_type;location;lat;lon;timestamp;pressure;altitude;pressure_sealevel;temperature;humidity
47883;BME280;37739;50.350;7.578;2023-02-10T00:01:09;101672.16;;;0.87;64.23
47883;BME280;37739;50.350;7.578;2023-02-10T00:03:35;101679.88;;;0.88;64.00
47883;BME280;37739;50.350;7.578;2023-02-10T00:06:04;101674.28;;;0.91;63.98
47883;BME280;37739;50.350;7.578;2023-02-10T00:08:30;101674.41;;;0.92;63.42
47883;BME280;37739;50.350;7.578;2023-02-10T00:11:00;101666.69;;;0.91;64.29
47883;BME280;37739;50.350;7.578;2023-02-10T00:13:26;101665.41;;;0.94;63.79
47883;BME280;37739;50.350;7.578;2023-02-10T00:15:54;101670.03;;;0.98;64.24
47883;BME280;37739;50.350;7.578;2023-02-10T00:18:21;101667.97;;;1.03;63.73
47883;BME280;37739;50.350;7.578;2023-02-10T00:20:49;101672.31;;;1.04;63.39
47883;BME280;37739;50.350;7.578;2023-02-10T00:23:19;101676.44;;;1.04;63.80
47883;BME280;37739;50.350;7.578;2023-02-10T00:25:47;101674.66;;;1.03;63.54
47883;BME280;37739;50.350;7.578;2023-02-10T00:28:14;101683.31;;;1.05;63.62
47883;BME280;37739;50.350;7.578;2023-02-10T00:30:42;101689.41;;;1.07;63.50
47883;BME280;37739;50.350;7.578;2023-02-10T00:33:09;101684.38;;;1.07;63.98
47883;BME280;37739;50.350;7.578;2023-02-10T00:35:39;101690.88;;;1.05;64.42
47883;BME280;37739;50.350;7.578;2023-02-10T00:38:04;101686.97;;;1.00;65.04
47883;BME280;37739;50.350;7.578;2023-02-10T00:40:29;101697.50;;;0.95;65.41
47883;BME280;37739;50.350;7.578;2023-02-10T00:42:55;101694.97;;;0.95;65.11
47883;BME280;37739;50.350;7.578;2023-02-10T00:45:20;101697.34;;;0.94;65.03
47883;BME280;37739;50.350;7.578;2023-02-10T00:47:48;101699.59;;;1.00;64.59
47883;BME280;37739;50.350;7.578;2023-02-10T00:50:17;101706.94;;;1.05;64.66
47883;BME280;37739;50.350;7.578;2023-02-10T00:52:45;101708.16;;;1.09;64.93
47883;BME280;37739;50.350;7.578;2023-02-10T00:55:12;101722.75;;;1.11;64.30
47883;BME280;37739;50.350;7.578;2023-02-10T00:57:37;101727.81;;;1.11;64.74
47883;BME280;37739;50.350;7.578;2023-02-10T01:00:03;101723.97;;;1.15;63.78
47883;BME280;37739;50.350;7.578;2023-02-10T01:02:28;101716.72;;;1.18;63.59
47883;BME280;37739;50.350;7.578;2023-02-10T01:04:54;101718.66;;;1.21;63.76
47883;BME280;37739;50.350;7.578;2023-02-10T01:07:21;101724.78;;;1.23;63.32
47883;BME280;37739;50.350;7.578;2023-02-10T01:09:49;101721.38;;;1.22;64.00
47883;BME280;37739;50.350;7.578;2023-02-10T01:12:14;101720.13;;;1.18;63.06
47883;BME280;37739;50.350;7.578;2023-02-10T01:14:39;101726.25;;;1.21;63.81
47883;BME280;37739;50.350;7.578;2023-02-10T01:17:05;101722.66;;;1.18;63.43
47883;BME280;37739;50.350;7.578;2023-02-10T01:19:30;101720.31;;;1.20;63.98
47883;BME280;37739;50.350;7.578;2023-02-10T01:21:55;101729.66;;;1.21;63.23
47883;BME280;37739;50.350;7.578;2023-02-10T01:24:20;101734.00;;;1.22;63.21
47883;BME280;37739;50.350;7.578;2023-02-10T01:26:46;101742.47;;;1.23;62.92
47883;BME280;37739;50.350;7.578;2023-02-10T01:29:11;101733.38;;;1.16;64.60
47883;BME280;37739;50.350;7.578;2023-02-10T01:31:39;101736.16;;;0.94;66.60
47883;BME280;37739;50.350;7.578;2023-02-10T01:34:04;101736.22;;;0.87;67.01
47883;BME280;37739;50.350;7.578;2023-02-10T01:36:29;101733.78;;;0.96;66.42
47883;BME280;37739;50.350;7.578;2023-02-10T01:38:59;101736.06;;;1.02;66.30
47883;BME280;37739;50.350;7.578;2023-02-10T01:41:27;101738.34;;;1.07;66.32
47883;BME280;37739;50.350;7.578;2023-02-10T01:43:59;101741.44;;;1.05;67.25
47883;BME280;37739;50.350;7.578;2023-02-10T01:46:29;101749.91;;;1.05;67.06
47883;BME280;37739;50.350;7.578;2023-02-10T01:48:56;101749.59;;;1.02;67.33
47883;BME280;37739;50.350;7.578;2023-02-10T01:51:25;101743.47;;;1.00;67.60
47883;BME280;37739;50.350;7.578;2023-02-10T01:53:54;101747.38;;;1.05;67.04
47883;BME280;37739;50.350;7.578;2023-02-10T01:56:20;101758.72;;;1.09;67.84
47883;BME280;37739;50.350;7.578;2023-02-10T01:58:45;101765.25;;;1.07;67.64
47883;BME280;37739;50.350;7.578;2023-02-10T02:01:13;101762.91;;;1.08;68.72
47883;BME280;37739;50.350;7.578;2023-02-10T02:03:38;101757.25;;;1.11;68.97
47883;BME280;37739;50.350;7.578;2023-02-10T02:06:06;101766.47;;;1.10;69.48
47883;BME280;37739;50.350;7.578;2023-02-10T02:08:34;101760.38;;;1.08;69.23
47883;BME280;37739;50.350;7.578;2023-02-10T02:17:08;101756.19;;;1.09;69.38
47883;BME280;37739;50.350;7.578;2023-02-10T02:26:44;101765.97;;;1.22;68.99
47883;BME280;37739;50.350;7.578;2023-02-10T02:29:37;101769.75;;;1.25;68.43
47883;BME280;37739;50.350;7.578;2023-02-10T02:37:19;101773.06;;;1.33;67.71
47883;BME280;37739;50.350;7.578;2023-02-10T02:39:53;101777.22;;;1.32;68.22
47883;BME280;37739;50.350;7.578;2023-02-10T02:42:24;101769.16;;;1.28;69.52
47883;BME280;37739;50.350;7.578;2023-02-10T02:55:49;101759.50;;;1.32;68.82
47883;BME280;37739;50.350;7.578;2023-02-10T02:58:31;101754.28;;;1.31;69.18
47883;BME280;37739;50.350;7.578;2023-02-10T03:01:01;101760.09;;;1.30;69.01
47883;BME280;37739;50.350;7.578;2023-02-10T03:03:31;101755.75;;;1.29;68.29
47883;BME280;37739;50.350;7.578;2023-02-10T03:05:59;101759.34;;;1.31;68.13
47883;BME280;37739;50.350;7.578;2023-02-10T03:08:27;101760.25;;;1.31;68.69
47883;BME280;37739;50.350;7.578;2023-02-10T03:10:53;101757.41;;;1.28;68.82
47883;BME280;37739;50.350;7.578;2023-02-10T03:13:21;101759.34;;;1.31;69.03
47883;BME280;37739;50.350;7.578;2023-02-10T03:15:46;101760.69;;;1.27;70.22
47883;BME280;37739;50.350;7.578;2023-02-10T03:18:17;101768.09;;;1.26;69.48
47883;BME280;37739;50.350;7.578;2023-02-10T03:20:47;101771.34;;;1.25;68.84
47883;BME280;37739;50.350;7.578;2023-02-10T03:23:12;101765.75;;;1.27;68.77
47883;BME280;37739;50.350;7.578;2023-02-10T03:25:40;101780.41;;;1.23;69.58
47883;BME280;37739;50.350;7.578;2023-02-10T03:28:10;101772.66;;;1.21;69.94
47883;BME280;37739;50.350;7.578;2023-02-10T03:30:36;101779.19;;;1.19;69.32
47883;BME280;37739;50.350;7.578;2023-02-10T03:33:02;101775.94;;;1.20;69.56
47883;BME280;37739;50.350;7.578;2023-02-10T03:35:30;101771.19;;;1.23;69.52
47883;BME280;37739;50.350;7.578;2023-02-10T03:37:55;101762.16;;;1.25;68.87
47883;BME280;37739;50.350;7.578;2023-02-10T03:40:22;101778.22;;;1.26;69.49
47883;BME280;37739;50.350;7.578;2023-02-10T03:42:52;101776.09;;;1.22;69.68
47883;BME280;37739;50.350;7.578;2023-02-10T03:45:18;101785.03;;;1.27;69.19
47883;BME280;37739;50.350;7.578;2023-02-10T03:47:43;101789.38;;;1.28;69.28
47883;BME280;37739;50.350;7.578;2023-02-10T03:50:08;101785.56;;;1.31;69.04
47883;BME280;37739;50.350;7.578;2023-02-10T03:52:34;101785.84;;;1.34;68.73
47883;BME280;37739;50.350;7.578;2023-02-10T03:54:59;101787.84;;;1.37;69.07
47883;BME280;37739;50.350;7.578;2023-02-10T03:57:29;101791.25;;;1.37;69.19
47883;BME280;37739;50.350;7.578;2023-02-10T03:59:56;101791.09;;;1.36;68.80
47883;BME280;37739;50.350;7.578;2023-02-10T04:02:22;101791.84;;;1.35;68.92
47883;BME280;37739;50.350;7.578;2023-02-10T04:04:47;101802.84;;;1.35;68.51
47883;BME280;37739;50.350;7.578;2023-02-10T04:07:17;101792.13;;;1.38;68.45
47883;BME280;37739;50.350;7.578;2023-02-10T04:09:45;101803.00;;;1.37;68.32
47883;BME280;37739;50.350;7.578;2023-02-10T04:12:10;101800.78;;;1.40;68.82
47883;BME280;37739;50.350;7.578;2023-02-10T04:14:38;101803.66;;;1.43;68.49
47883;BME280;37739;50.350;7.578;2023-02-10T04:17:05;101797.53;;;1.41;68.42
47883;BME280;37739;50.350;7.578;2023-02-10T04:19:31;101798.25;;;1.40;68.78
47883;BME280;37739;50.350;7.578;2023-02-10T04:21:58;101809.28;;;1.41;68.66
47883;BME280;37739;50.350;7.578;2023-02-10T04:24:26;101799.16;;;1.41;68.72
47883;BME280;37739;50.350;7.578;2023-02-10T04:26:51;101799.00;;;1.39;68.86
47883;BME280;37739;50.350;7.578;2023-02-10T04:29:16;101798.50;;;1.34;69.01
47883;BME280;37739;50.350;7.578;2023-02-10T04:31:42;101790.03;;;1.34;69.43
47883;BME280;37739;50.350;7.578;2023-02-10T04:34:07;101797.63;;;1.34;69.26
47883;BME280;37739;50.350;7.578;2023-02-10T04:36:34;101795.72;;;1.40;69.47
47883;BME280;37739;50.350;7.578;2023-02-10T04:39:00;101794.38;;;1.35;69.50
47883;BME280;37739;50.350;7.578;2023-02-10T04:41:26;101799.56;;;1.36;70.07
47883;BME280;37739;50.350;7.578;2023-02-10T04:43:51;101797.94;;;1.37;69.49
47883;BME280;37739;50.350;7.578;2023-02-10T04:46:19;101789.31;;;1.35;70.22
47883;BME280;37739;50.350;7.578;2023-02-10T04:48:47;101798.84;;;1.37;69.93
47883;BME280;37739;50.350;7.578;2023-02-10T04:51:15;101795.72;;;1.40;69.15
47883;BME280;37739;50.350;7.578;2023-02-10T04:53:41;101803.13;;;1.38;69.19
47883;BME280;37739;50.350;7.578;2023-02-10T04:56:11;101807.13;;;1.36;69.56
47883;BME280;37739;50.350;7.578;2023-02-10T04:58:36;101807.91;;;1.35;69.05
47883;BME280;37739;50.350;7.578;2023-02-10T05:01:04;101809.53;;;1.35;68.87
47883;BME280;37739;50.350;7.578;2023-02-10T05:03:30;101818.72;;;1.34;69.35
47883;BME280;37739;50.350;7.578;2023-02-10T05:05:57;101811.31;;;1.36;69.56
47883;BME280;37739;50.350;7.578;2023-02-10T05:08:23;101813.13;;;1.37;69.37
47883;BME280;37739;50.350;7.578;2023-02-10T05:10:52;101810.66;;;1.30;69.91
47883;BME280;37739;50.350;7.578;2023-02-10T05:13:20;101806.84;;;1.33;69.81
47883;BME280;37739;50.350;7.578;2023-02-10T05:15:46;101805.66;;;1.38;69.96
47883;BME280;37739;50.350;7.578;2023-02-10T05:18:12;101791.00;;;1.43;69.90
47883;BME280;37739;50.350;7.578;2023-02-10T05:20:37;101797.84;;;1.44;69.49
47883;BME280;37739;50.350;7.578;2023-02-10T05:23:05;101797.53;;;1.41;69.74
47883;BME280;37739;50.350;7.578;2023-02-10T05:25:30;101795.00;;;1.41;69.47
47883;BME280;37739;50.350;7.578;2023-02-10T05:27:55;101792.31;;;1.40;69.74
47883;BME280;37739;50.350;7.578;2023-02-10T05:30:20;101787.06;;;1.38;69.98
47883;BME280;37739;50.350;7.578;2023-02-10T05:32:48;101788.88;;;1.39;70.02
47883;BME280;37739;50.350;7.578;2023-02-10T05:35:18;101790.34;;;1.37;70.15
47883;BME280;37739;50.350;7.578;2023-02-10T05:37:46;101786.34;;;1.39;70.57
47883;BME280;37739;50.350;7.578;2023-02-10T05:40:11;101770.25;;;1.38;70.16
47883;BME280;37739;50.350;7.578;2023-02-10T05:42:36;101777.72;;;1.37;70.92
47883;BME280;37739;50.350;7.578;2023-02-10T05:45:02;101774.13;;;1.35;71.17
47883;BME280;37739;50.350;7.578;2023-02-10T05:47:29;101770.78;;;1.27;70.69
47883;BME280;37739;50.350;7.578;2023-02-10T05:49:55;101770.22;;;1.30;71.66
47883;BME280;37739;50.350;7.578;2023-02-10T05:52:23;101770.03;;;1.28;71.38
47883;BME280;37739;50.350;7.578;2023-02-10T05:54:48;101776.75;;;1.28;71.71
47883;BME280;37739;50.350;7.578;2023-02-10T05:57:15;101778.75;;;1.23;71.78
47883;BME280;37739;50.350;7.578;2023-02-10T05:59:41;101779.97;;;1.27;71.97
47883;BME280;37739;50.350;7.578;2023-02-10T06:02:07;101786.22;;;1.22;71.84
47883;BME280;37739;50.350;7.578;2023-02-10T06:04:32;101790.50;;;1.23;72.33
47883;BME280;37739;50.350;7.578;2023-02-10T06:06:58;101797.69;;;1.27;72.58
47883;BME280;37739;50.350;7.578;2023-02-10T06:09:23;101803.88;;;1.06;72.68
47883;BME280;37739;50.350;7.578;2023-02-10T06:11:54;101804.56;;;1.12;73.15
47883;BME280;37739;50.350;7.578;2023-02-10T06:14:22;101806.44;;;1.22;72.54
47883;BME280;37739;50.350;7.578;2023-02-10T06:16:47;101808.22;;;1.23;72.48
47883;BME280;37739;50.350;7.578;2023-02-10T06:19:13;101811.16;;;1.18;72.97
47883;BME280;37739;50.350;7.578;2023-02-10T06:21:40;101811.09;;;1.26;72.41
47883;BME280;37739;50.350;7.578;2023-02-10T06:24:06;101828.38;;;1.30;72.74
47883;BME280;37739;50.350;7.578;2023-02-10T06:26:35;101831.47;;;1.27;72.54
47883;BME280;37739;50.350;7.578;2023-02-10T06:29:02;101839.53;;;1.16;72.58
47883;BME280;37739;50.350;7.578;2023-02-10T06:31:27;101831.13;;;1.24;72.05
47883;BME280;37739;50.350;7.578;2023-02-10T06:33:55;101834.66;;;1.33;71.70
47883;BME280;37739;50.350;7.578;2023-02-10T06:36:20;101834.66;;;1.33;71.45
47883;BME280;37739;50.350;7.578;2023-02-10T06:38:46;101839.88;;;1.35;72.70
47883;BME280;37739;50.350;7.578;2023-02-10T06:41:13;101846.88;;;1.37;72.52
47883;BME280;37739;50.350;7.578;2023-02-10T06:43:40;101842.16;;;1.41;71.98
47883;BME280;37739;50.350;7.578;2023-02-10T06:46:11;101840.69;;;1.43;71.86
47883;BME280;37739;50.350;7.578;2023-02-10T06:48:38;101834.88;;;1.44;71.91
47883;BME280;37739;50.350;7.578;2023-02-10T06:51:06;101842.47;;;1.44;71.83
47883;BME280;37739;50.350;7.578;2023-02-10T06:53:31;101843.53;;;1.46;71.98
47883;BME280;37739;50.350;7.578;2023-02-10T06:55:57;101845.34;;;1.47;71.64
47883;BME280;37739;50.350;7.578;2023-02-10T06:58:23;101849.81;;;1.49;71.68
47883;BME280;37739;50.350;7.578;2023-02-10T07:00:48;101844.75;;;1.49;71.63
47883;BME280;37739;50.350;7.578;2023-02-10T07:03:14;101847.78;;;1.38;71.78
47883;BME280;37739;50.350;7.578;2023-02-10T07:05:39;101856.66;;;1.34;72.10
47883;BME280;37739;50.350;7.578;2023-02-10T07:08:06;101857.16;;;1.39;71.99
47883;BME280;37739;50.350;7.578;2023-02-10T07:10:31;101859.28;;;1.43;71.96
47883;BME280;37739;50.350;7.578;2023-02-10T07:12:56;101857.66;;;1.44;71.77
47883;BME280;37739;50.350;7.578;2023-02-10T07:15:24;101858.41;;;1.43;70.80
47883;BME280;37739;50.350;7.578;2023-02-10T07:17:50;101862.00;;;1.45;70.32
47883;BME280;37739;50.350;7.578;2023-02-10T07:20:19;101859.75;;;1.48;70.55
47883;BME280;37739;50.350;7.578;2023-02-10T07:22:44;101864.81;;;1.48;70.42
47883;BME280;37739;50.350;7.578;2023-02-10T07:25:12;101861.06;;;1.44;70.85
47883;BME280;37739;50.350;7.578;2023-02-10T07:27:40;101866.53;;;1.40;70.13
47883;BME280;37739;50.350;7.578;2023-02-10T07:30:08;101872.19;;;1.37;70.64
47883;BME280;37739;50.350;7.578;2023-02-10T07:32:34;101873.06;;;1.38;70.72
47883;BME280;37739;50.350;7.578;2023-02-10T07:34:59;101872.19;;;1.37;70.06
47883;BME280;37739;50.350;7.578;2023-02-10T07:37:24;101876.19;;;1.35;70.67
47883;BME280;37739;50.350;7.578;2023-02-10T07:39:53;101879.59;;;1.36;71.99
47883;BME280;37739;50.350;7.578;2023-02-10T07:42:21;101884.06;;;1.38;71.38
47883;BME280;37739;50.350;7.578;2023-02-10T07:44:46;101881.41;;;1.37;72.32
47883;BME280;37739;50.350;7.578;2023-02-10T07:47:16;101879.19;;;1.40;71.91
47883;BME280;37739;50.350;7.578;2023-02-10T07:49:41;101885.88;;;1.40;72.68
47883;BME280;37739;50.350;7.578;2023-02-10T07:52:09;101879.34;;;1.42;73.26
47883;BME280;37739;50.350;7.578;2023-02-10T07:54:35;101881.31;;;1.44;73.18
47883;BME280;37739;50.350;7.578;2023-02-10T07:57:05;101888.34;;;1.47;73.06
47883;BME280;37739;50.350;7.578;2023-02-10T07:59:31;101896.22;;;1.50;73.02
47883;BME280;37739;50.350;7.578;2023-02-10T08:01:56;101896.22;;;1.50;73.01
47883;BME280;37739;50.350;7.578;2023-02-10T08:04:21;101901.06;;;1.55;73.00
47883;BME280;37739;50.350;7.578;2023-02-10T08:06:49;101900.09;;;1.62;72.99
47883;BME280;37739;50.350;7.578;2023-02-10T08:09:17;101904.16;;;1.69;72.64
47883;BME280;37739;50.350;7.578;2023-02-10T08:11:43;101901.47;;;1.51;73.46
47883;BME280;37739;50.350;7.578;2023-02-10T08:14:08;101912.22;;;1.57;73.17
47883;BME280;37739;50.350;7.578;2023-02-10T08:16:33;101905.44;;;1.65;72.83
47883;BME280;37739;50.350;7.578;2023-02-10T08:18:59;101910.03;;;1.76;72.55
47883;BME280;37739;50.350;7.578;2023-02-10T08:21:29;101905.06;;;1.85;72.31
47883;BME280;37739;50.350;7.578;2023-02-10T08:23:55;101903.00;;;1.90;72.34
47883;BME280;37739;50.350;7.578;2023-02-10T08:26:24;101907.34;;;1.91;72.21
47883;BME280;37739;50.350;7.578;2023-02-10T08:28:50;101910.75;;;1.91;71.94
47883;BME280;37739;50.350;7.578;2023-02-10T08:31:19;101911.81;;;1.93;71.31
47883;BME280;37739;50.350;7.578;2023-02-10T08:33:46;101911.56;;;1.99;71.14
47883;BME280;37739;50.350;7.578;2023-02-10T08:36:19;101905.03;;;2.01;69.70
47883;BME280;37739;50.350;7.578;2023-02-10T08:38:46;101897.41;;;2.01;70.01
47883;BME280;37739;50.350;7.578;2023-02-10T08:41:12;101899.97;;;2.01;69.78
47883;BME280;37739;50.350;7.578;2023-02-10T08:43:40;101900.69;;;2.00;69.06
47883;BME280;37739;50.350;7.578;2023-02-10T08:46:06;101900.84;;;2.02;69.47
47883;BME280;37739;50.350;7.578;2023-02-10T08:48:34;101901.59;;;2.01;68.88
47883;BME280;37739;50.350;7.578;2023-02-10T08:51:00;101902.41;;;1.92;70.04
47883;BME280;37739;50.350;7.578;2023-02-10T08:53:31;101900.47;;;1.90;69.63
47883;BME280;37739;50.350;7.578;2023-02-10T08:56:04;101900.97;;;1.94;69.74
47883;BME280;37739;50.350;7.578;2023-02-10T08:58:31;101902.50;;;2.01;68.89
47883;BME280;37739;50.350;7.578;2023-02-10T09:00:59;101895.53;;;2.07;68.72
47883;BME280;37739;50.350;7.578;2023-02-10T09:03:27;101891.06;;;2.05;68.93
47883;BME280;37739;50.350;7.578;2023-02-10T09:05:53;101893.09;;;2.00;69.29
47883;BME280;37739;50.350;7.578;2023-02-10T09:08:19;101905.19;;;2.03;68.67
47883;BME280;37739;50.350;7.578;2023-02-10T09:10:45;101893.84;;;1.99;68.89
47883;BME280;37739;50.350;7.578;2023-02-10T09:13:13;101894.88;;;2.01;69.18
47883;BME280;37739;50.350;7.578;2023-02-10T09:15:40;101891.94;;;2.05;69.17
47883;BME280;37739;50.350;7.578;2023-02-10T09:18:09;101894.03;;;2.09;69.46
47883;BME280;37739;50.350;7.578;2023-02-10T09:20:41;101897.13;;;2.23;68.70
47883;BME280;37739;50.350;7.578;2023-02-10T09:23:07;101901.41;;;2.40;68.71
47883;BME280;37739;50.350;7.578;2023-02-10T09:25:32;101905.44;;;2.46;68.44
47883;BME280;37739;50.350;7.578;2023-02-10T09:27:57;101906.09;;;2.52;68.34
47883;BME280;37739;50.350;7.578;2023-02-10T09:30:24;101899.13;;;2.59;68.32
47883;BME280;37739;50.350;7.578;2023-02-10T09:32:52;101898.69;;;2.63;68.66
47883;BME280;37739;50.350;7.578;2023-02-10T09:35:20;101909.16;;;2.66;68.41
47883;BME280;37739;50.350;7.578;2023-02-10T09:37:48;101914.53;;;2.69;68.82
47883;BME280;37739;50.350;7.578;2023-02-10T09:40:25;101913.19;;;2.64;69.09
47883;BME280;37739;50.350;7.578;2023-02-10T09:43:01;101916.75;;;2.66;69.21
47883;BME280;37739;50.350;7.578;2023-02-10T09:45:34;101921.66;;;2.64;69.16
47883;BME280;37739;50.350;7.578;2023-02-10T09:48:17;101927.78;;;2.66;69.15
47883;BME280;37739;50.350;7.578;2023-02-10T09:51:19;101915.41;;;2.69;69.03
47883;BME280;37739;50.350;7.578;2023-02-10T09:53:42;101917.94;;;2.69;69.00
47883;BME280;37739;50.350;7.578;2023-02-10T09:56:14;101922.13;;;2.69;69.21
47883;BME280;37739;50.350;7.578;2023-02-10T09:58:49;101931.22;;;2.67;69.11
47883;BME280;37739;50.350;7.578;2023-02-10T10:01:21;101924.81;;;2.70;68.97
47883;BME280;37739;50.350;7.578;2023-02-10T10:03:54;101927.09;;;2.76;68.56
47883;BME280;37739;50.350;7.578;2023-02-10T10:06:26;101926.84;;;2.90;68.97
47883;BME280;37739;50.350;7.578;2023-02-10T10:09:01;101926.13;;;3.00;68.75
47883;BME280;37739;50.350;7.578;2023-02-10T10:11:44;101933.19;;;3.03;68.86
47883;BME280;37739;50.350;7.578;2023-02-10T10:30:40;101937.38;;;4.14;67.33
47883;BME280;37739;50.350;7.578;2023-02-10T10:35:49;101943.91;;;4.38;67.06
47883;BME280;37739;50.350;7.578;2023-02-10T10:40:46;101943.16;;;4.57;66.83
47883;BME280;37739;50.350;7.578;2023-02-10T10:43:17;101945.53;;;4.64;66.65
47883;BME280;37739;50.350;7.578;2023-02-10T10:45:48;101948.22;;;4.57;66.71
47883;BME280;37739;50.350;7.578;2023-02-10T10:48:22;101945.13;;;4.50;66.97
47883;BME280;37739;50.350;7.578;2023-02-10T10:51:03;101941.50;;;4.57;66.75
47883;BME280;37739;50.350;7.578;2023-02-10T10:53:35;101935.47;;;4.74;67.06
47883;BME280;37739;50.350;7.578;2023-02-10T10:56:05;101925.97;;;4.90;66.87
47883;BME280;37739;50.350;7.578;2023-02-10T10:58:37;101931.34;;;5.02;66.46
47883;BME280;37739;50.350;7.578;2023-02-10T11:01:05;101927.69;;;5.09;66.36
47883;BME280;37739;50.350;7.578;2023-02-10T11:03:32;101922.75;;;5.10;65.53
47883;BME280;37739;50.350;7.578;2023-02-10T11:08:57;101914.59;;;5.23;65.89
47883;BME280;37739;50.350;7.578;2023-02-10T11:11:41;101909.75;;;5.54;65.23
47883;BME280;37739;50.350;7.578;2023-02-10T11:14:27;101907.78;;;5.79;64.62
47883;BME280;37739;50.350;7.578;2023-02-10T11:16:59;101903.66;;;5.90;64.43
47883;BME280;37739;50.350;7.578;2023-02-10T11:19:32;101907.19;;;6.20;63.74
47883;BME280;37739;50.350;7.578;2023-02-10T11:22:00;101911.16;;;6.26;63.48
47883;BME280;37739;50.350;7.578;2023-02-10T11:24:33;101902.78;;;6.38;62.74
47883;BME280;37739;50.350;7.578;2023-02-10T11:27:06;101890.06;;;6.48;62.83
47883;BME280;37739;50.350;7.578;2023-02-10T11:29:40;101892.53;;;6.57;62.71
47883;BME280;37739;50.350;7.578;2023-02-10T11:32:15;101889.38;;;6.69;62.50
47883;BME280;37739;50.350;7.578;2023-02-10T11:34:49;101889.91;;;6.76;62.10
47883;BME280;37739;50.350;7.578;2023-02-10T11:37:27;101892.31;;;6.74;61.35
47883;BME280;37739;50.350;7.578;2023-02-10T11:39:58;101893.19;;;6.64;62.61
47883;BME280;37739;50.350;7.578;2023-02-10T11:42:31;101885.91;;;6.59;62.33
47883;BME280;37739;50.350;7.578;2023-02-10T11:45:15;101893.69;;;6.60;62.79
47883;BME280;37739;50.350;7.578;2023-02-10T11:47:41;101889.50;;;6.71;62.54
47883;BME280;37739;50.350;7.578;2023-02-10T11:50:22;101886.94;;;6.71;62.55
47883;BME280;37739;50.350;7.578;2023-02-10T11:52:48;101879.41;;;6.62;62.12
47883;BME280;37739;50.350;7.578;2023-02-10T11:55:16;101880.53;;;6.56;63.25
47883;BME280;37739;50.350;7.578;2023-02-10T11:58:10;101877.81;;;6.83;62.23
47883;BME280;37739;50.350;7.578;2023-02-10T12:01:15;101880.28;;;7.13;61.76
47883;BME280;37739;50.350;7.578;2023-02-10T12:07:03;101870.56;;;7.39;60.25
47883;BME280;37739;50.350;7.578;2023-02-10T12:09:31;101865.06;;;7.55;61.07
47883;BME280;37739;50.350;7.578;2023-02-10T12:12:09;101865.81;;;7.54;59.60
47883;BME280;37739;50.350;7.578;2023-02-10T12:31:13;101843.38;;;7.93;59.01
47883;BME280;37739;50.350;7.578;2023-02-10T12:36:43;101850.84;;;8.22;58.24
47883;BME280;37739;50.350;7.578;2023-02-10T12:42:16;101845.44;;;7.97;58.99
47883;BME280;37739;50.350;7.578;2023-02-10T12:47:46;101836.31;;;8.00;58.53
47883;BME280;37739;50.350;7.578;2023-02-10T12:53:28;101835.41;;;7.78;58.56
47883;BME280;37739;50.350;7.578;2023-02-10T12:58:30;101830.28;;;7.78;59.64
47883;BME280;37739;50.350;7.578;2023-02-10T13:01:20;101836.94;;;7.65;59.24
47883;BME280;37739;50.350;7.578;2023-02-10T13:03:52;101829.03;;;7.62;59.63
47883;BME280;37739;50.350;7.578;2023-02-10T13:06:34;101823.41;;;7.56;59.65
47883;BME280;37739;50.350;7.578;2023-02-10T13:09:17;101831.03;;;7.77;59.39
47883;BME280;37739;50.350;7.578;2023-02-10T13:14:28;101838.13;;;8.01;58.80
47883;BME280;37739;50.350;7.578;2023-02-10T13:16:56;101827.16;;;7.92;59.11
47883;BME280;37739;50.350;7.578;2023-02-10T13:27:31;101821.00;;;7.58;59.95
47883;BME280;37739;50.350;7.578;2023-02-10T13:35:23;101817.06;;;7.31;61.02
47883;BME280;37739;50.350;7.578;2023-02-10T13:37:56;101823.19;;;7.33;61.06
47883;BME280;37739;50.350;7.578;2023-02-10T13:43:00;101822.06;;;7.19;60.95
47883;BME280;37739;50.350;7.578;2023-02-10T13:45:32;101814.66;;;7.12;61.15
47883;BME280;37739;50.350;7.578;2023-02-10T13:48:02;101824.88;;;7.12;61.04
47883;BME280;37739;50.350;7.578;2023-02-10T13:53:30;101813.25;;;6.95;61.64
47883;BME280;37739;50.350;7.578;2023-02-10T13:58:59;101804.72;;;7.04;61.94
47883;BME280;37739;50.350;7.578;2023-02-10T14:06:52;101797.81;;;7.03;61.79
47883;BME280;37739;50.350;7.578;2023-02-10T14:09:19;101794.00;;;7.08;61.96
47883;BME280;37739;50.350;7.578;2023-02-10T14:11:46;101796.56;;;7.08;61.83
47883;BME280;37739;50.350;7.578;2023-02-10T14:19:45;101788.63;;;7.05;61.77
47883;BME280;37739;50.350;7.578;2023-02-10T14:24:51;101794.25;;;7.01;62.41
47883;BME280;37739;50.350;7.578;2023-02-10T14:27:21;101791.84;;;7.03;62.07
47883;BME280;37739;50.350;7.578;2023-02-10T14:29:50;101795.00;;;7.00;62.01
47883;BME280;37739;50.350;7.578;2023-02-10T14:32:17;101797.31;;;6.97;62.31
47883;BME280;37739;50.350;7.578;2023-02-10T14:35:03;101788.25;;;7.01;62.16
47883;BME280;37739;50.350;7.578;2023-02-10T14:37:31;101784.69;;;6.99;62.55
47883;BME280;37739;50.350;7.578;2023-02-10T14:39:59;101783.53;;;6.95;62.16
47883;BME280;37739;50.350;7.578;2023-02-10T14:42:30;101771.28;;;6.91;62.03
47883;BME280;37739;50.350;7.578;2023-02-10T14:45:00;101758.53;;;6.81;62.30
47883;BME280;37739;50.350;7.578;2023-02-10T14:47:33;101762.00;;;6.81;62.69
47883;BME280;37739;50.350;7.578;2023-02-10T14:49:59;101755.72;;;6.78;62.91
47883;BME280;37739;50.350;7.578;2023-02-10T14:52:45;101756.88;;;6.71;62.88
47883;BME280;37739;50.350;7.578;2023-02-10T14:57:55;101765.28;;;6.70;62.90
47883;BME280;37739;50.350;7.578;2023-02-10T15:00:24;101755.84;;;6.69;63.01
47883;BME280;37739;50.350;7.578;2023-02-10T15:02:55;101756.22;;;6.63;63.27
47883;BME280;37739;50.350;7.578;2023-02-10T15:05:24;101751.63;;;6.59;63.58
47883;BME280;37739;50.350;7.578;2023-02-10T15:07:54;101762.47;;;6.57;63.15
47883;BME280;37739;50.350;7.578;2023-02-10T15:10:35;101759.78;;;6.55;63.50
47883;BME280;37739;50.350;7.578;2023-02-10T15:13:02;101758.78;;;6.53;63.53
47883;BME280;37739;50.350;7.578;2023-02-10T15:15:31;101756.22;;;6.53;63.41
47883;BME280;37739;50.350;7.578;2023-02-10T15:20:33;101746.63;;;6.40;64.22